Time;durP1;ratioP1;P1;durP2;ratioP2;P2;SDS_P1;SDS_P2;PMS_P1;PMS_P2;Temp;Humidity;BMP_temperature;BMP_pressure;BME280_temperature;BME280_humidity;BME280_pressure;Samples;Min_cycle;Max_cycle;Signal;HPM_P1;HPM_P2
2022/08/20 00:00:35;;;;;;;2.17;1.40;;;21.00;93.90;;;20.32;66.33;97264.25;4997458;28;20411;-76
2022/08/20 00:03:07;;;;;;;2.63;1.38;;;20.90;93.70;;;20.22;66.85;97270.75;4996936;28;20414;-76
2022/08/20 00:05:40;;;;;;;4.00;1.37;;;20.80;94.00;;;20.21;66.80;97273.75;4997297;28;20460;-75
2022/08/20 00:08:07;;;;;;;1.50;1.40;;;20.80;94.20;;;20.14;66.92;97276.91;4997447;28;20460;-76
2022/08/20 00:10:37;;;;;;;1.92;1.30;;;20.80;94.30;;;20.18;67.81;97269.00;4997360;28;20406;-75
2022/08/20 00:13:06;;;;;;;3.83;1.42;;;20.80;95.20;;;20.10;67.25;97274.06;4996881;28;20418;-75
2022/08/20 00:15:37;;;;;;;1.67;1.42;;;20.70;94.80;;;20.05;67.15;97274.22;4997191;28;20409;-75
2022/08/20 00:18:04;;;;;;;4.47;1.60;;;20.70;95.00;;;19.99;67.31;97272.78;4997397;28;20813;-75
2022/08/20 00:20:36;;;;;;;1.95;1.38;;;20.70;95.10;;;19.93;67.64;97262.50;4997141;28;20402;-75
2022/08/20 00:23:03;;;;;;;3.87;1.57;;;20.60;95.30;;;19.97;68.10;97268.84;4996772;28;20410;-76
2022/08/20 00:25:29;;;;;;;3.10;1.50;;;20.60;96.00;;;19.98;68.12;97273.91;4997120;28;20497;-75
2022/08/20 00:27:55;;;;;;;1.95;1.60;;;20.60;96.10;;;20.00;68.02;97271.66;4997181;28;20460;-75
2022/08/20 00:30:22;;;;;;;4.15;1.67;;;20.60;96.30;;;19.97;68.04;97277.69;4996971;28;20410;-76
2022/08/20 00:32:52;;;;;;;3.38;1.50;;;20.60;96.20;;;19.88;67.94;97276.88;4996706;28;20792;-75
2022/08/20 00:35:27;;;;;;;3.17;1.52;;;20.60;96.10;;;19.86;68.50;97278.28;4979807;28;20402;-76
2022/08/20 00:37:56;;;;;;;1.70;1.58;;;20.50;96.80;;;19.79;69.04;97278.75;4997166;28;20410;-76
2022/08/20 00:40:27;;;;;;;3.17;1.40;;;20.50;97.20;;;19.81;68.76;97278.44;4996985;28;20406;-75
2022/08/20 00:42:57;;;;;;;3.58;1.40;;;20.50;97.40;;;19.86;69.56;97276.38;4996502;28;20407;-75
2022/08/20 00:45:26;;;;;;;1.80;1.20;;;20.50;98.10;;;19.77;68.86;97274.81;4996658;28;20421;-75
2022/08/20 00:47:56;;;;;;;1.75;1.20;;;20.50;97.40;;;19.77;69.55;97272.91;4997014;28;20420;-75
2022/08/20 00:50:28;;;;;;;1.38;1.25;;;20.40;98.20;;;19.78;69.13;97279.84;4993473;28;20454;-75
2022/08/20 00:52:55;;;;;;;1.48;1.30;;;20.50;98.00;;;19.79;69.59;97275.25;4976072;28;20440;-76
2022/08/20 00:55:24;;;;;;;2.75;1.38;;;20.50;98.40;;;19.75;68.63;97283.19;4976351;28;20432;-75
2022/08/20 00:57:56;;;;;;;1.88;1.50;;;20.40;97.60;;;19.82;69.11;97278.13;4994057;28;20741;-76
2022/08/20 01:00:28;;;;;;;4.38;1.60;;;20.40;98.60;;;19.79;68.60;97286.00;4993720;28;20406;-75
2022/08/20 01:02:55;;;;;;;3.47;1.80;;;20.40;97.70;;;19.78;68.53;97274.47;4975927;28;20418;-75
2022/08/20 01:05:22;;;;;;;1.98;1.50;;;20.50;97.70;;;19.83;69.13;97282.41;4993579;28;20421;-75
2022/08/20 01:07:52;;;;;;;4.05;1.20;;;20.40;98.10;;;19.77;68.67;97283.66;4993659;28;20418;-75
2022/08/20 01:10:26;;;;;;;1.50;1.30;;;20.40;97.70;;;19.78;68.72;97284.44;4993464;28;20410;-75
2022/08/20 01:12:57;;;;;;;2.33;1.40;;;20.40;97.90;;;19.76;69.11;97294.72;4993227;28;20483;-76
2022/08/20 01:15:30;;;;;;;1.30;1.13;;;20.40;98.10;;;19.74;69.57;97291.53;4993549;28;20409;-75
2022/08/20 01:18:00;;;;;;;2.67;1.38;;;20.40;98.50;;;19.79;69.17;97300.22;4993587;28;20764;-75
2022/08/20 01:20:31;;;;;;;1.70;1.42;;;20.40;98.50;;;19.76;68.87;97297.41;4994219;28;20410;-76
2022/08/20 01:25:56;;;;;;;2.45;1.30;;;20.40;98.60;;;19.77;69.18;97301.66;4993284;28;20434;-75
2022/08/20 01:28:28;;;;;;;2.92;1.42;;;20.40;98.60;;;19.79;69.12;97300.22;4993264;28;20403;-76
2022/08/20 01:30:55;;;;;;;3.60;1.20;;;20.50;98.60;;;19.78;69.04;97304.03;4991362;23;20988;-74
2022/08/20 01:33:22;;;;;;;1.55;1.25;;;20.40;98.60;;;19.83;69.46;97306.59;4972853;28;20443;-75
2022/08/20 01:35:50;;;;;;;1.73;1.40;;;20.40;99.10;;;19.80;68.76;97299.13;4973549;28;20412;-75
2022/08/20 01:38:16;;;;;;;2.20;1.60;;;20.50;98.30;;;19.78;68.94;97306.69;4973509;28;20405;-75
2022/08/20 01:41:25;;;;;;;1.88;1.20;;;20.50;98.50;;;19.82;69.51;97310.38;4988139;28;20446;-75
2022/08/20 01:43:56;;;;;;;2.88;1.30;;;20.40;99.00;;;19.81;69.15;97303.41;4992670;28;20406;-75
2022/08/20 01:46:25;;;;;;;1.65;1.25;;;20.50;98.70;;;19.82;69.64;97310.38;4992980;28;20504;-75
2022/08/20 01:48:53;;;;;;;3.72;1.50;;;20.50;99.20;;;19.83;69.46;97308.47;4992878;28;20403;-75
2022/08/20 01:51:23;;;;;;;2.50;1.40;;;20.40;99.10;;;19.87;69.63;97306.72;4992919;28;20544;-75
2022/08/20 01:53:53;;;;;;;1.58;1.20;;;20.50;99.20;;;19.80;69.16;97309.88;4992365;28;20445;-75
2022/08/20 01:56:24;;;;;;;4.43;1.63;;;20.50;98.70;;;19.79;69.49;97315.56;4992752;28;20471;-75
2022/08/20 01:58:54;;;;;;;3.65;1.50;;;20.50;99.00;;;19.78;69.05;97319.34;4992760;28;20419;-75
2022/08/20 02:01:26;;;;;;;2.20;1.40;;;20.50;98.80;;;19.77;69.69;97317.78;4991807;28;20460;-75
2022/08/20 02:03:53;;;;;;;2.05;1.30;;;20.40;99.20;;;19.81;69.97;97319.53;4992153;28;20812;-75
2022/08/20 02:06:24;;;;;;;1.90;1.40;;;20.50;99.70;;;19.82;69.57;97315.75;4992514;28;20457;-75
2022/08/20 02:08:53;;;;;;;1.60;1.30;;;20.50;99.40;;;19.79;69.68;97315.56;4992481;28;20457;-75
2022/08/20 02:11:22;;;;;;;1.50;1.20;;;20.50;99.30;;;19.79;69.77;97312.88;4992476;28;20438;-75
2022/08/20 02:13:51;;;;;;;1.60;1.10;;;20.50;99.50;;;19.78;69.45;97322.03;4991856;28;20873;-74
2022/08/20 02:16:20;;;;;;;2.10;1.40;;;20.50;99.20;;;19.75;69.35;97322.66;4992312;28;20819;-75
2022/08/20 02:18:48;;;;;;;1.58;1.27;;;20.40;99.10;;;19.75;69.80;97319.97;4992253;28;20406;-75
2022/08/20 02:21:14;;;;;;;2.88;1.48;;;20.40;99.40;;;19.71;69.93;97317.91;4992281;28;20931;-75
2022/08/20 02:23:40;;;;;;;3.60;1.57;;;20.40;99.60;;;19.73;70.19;97316.81;4991729;28;20491;-75
2022/08/20 02:26:06;;;;;;;1.98;1.40;;;20.40;99.90;;;19.71;70.01;97315.22;4992120;28;20426;-75
2022/08/20 02:28:34;;;;;;;3.25;1.70;;;20.40;99.90;;;19.74;70.41;97313.81;4992069;28;20758;-75
2022/08/20 02:31:01;;;;;;;1.40;1.20;;;20.40;99.90;;;19.70;70.18;97318.22;4992010;28;20885;-75
2022/08/20 02:33:27;;;;;;;2.00;1.45;;;20.40;99.90;;;19.69;70.83;97320.13;4991613;28;20529;-75
2022/08/20 02:35:55;;;;;;;1.50;1.40;;;20.40;99.90;;;19.71;70.73;97325.16;4992088;28;20493;-75
2022/08/20 02:38:21;;;;;;;4.80;1.80;;;20.40;99.90;;;19.76;70.00;97321.56;4992047;28;20473;-75
2022/08/20 02:40:48;;;;;;;2.83;1.67;;;20.40;99.90;;;19.73;70.61;97322.97;4991834;28;20422;-75
2022/08/20 02:43:17;;;;;;;3.17;1.42;;;20.40;99.90;;;19.73;71.18;97332.91;4991544;28;20410;-75
2022/08/20 02:45:44;;;;;;;2.28;1.55;;;20.40;99.90;;;19.82;70.88;97317.63;4991742;28;20505;-75
2022/08/20 02:48:19;;;;;;;1.83;1.38;;;20.40;99.90;;;19.89;70.91;97326.03;4991798;28;20406;-75
2022/08/20 02:50:49;;;;;;;1.77;1.58;;;20.50;99.90;;;19.82;70.16;97329.16;4991733;28;20402;-75
2022/08/20 02:53:15;;;;;;;3.30;1.50;;;20.50;99.90;;;19.82;70.79;97321.13;4991318;28;20418;-75
2022/08/20 02:55:41;;;;;;;1.70;1.60;;;20.50;99.90;;;19.78;70.60;97324.72;4991579;28;20402;-75
2022/08/20 02:58:07;;;;;;;2.08;1.50;;;20.50;99.90;;;19.76;70.71;97322.38;4991603;28;20541;-75
2022/08/20 03:00:33;;;;;;;3.50;1.50;;;20.50;99.90;;;19.77;70.89;97317.78;4991454;28;20553;-75
2022/08/20 03:03:01;;;;;;;2.15;1.60;;;20.40;99.90;;;19.75;70.77;97318.09;4991230;28;20402;-75
2022/08/20 03:05:27;;;;;;;2.78;1.52;;;20.40;99.90;;;19.82;70.74;97313.06;4991381;28;20422;-75
2022/08/20 03:07:55;;;;;;;1.52;1.25;;;20.50;99.90;;;19.84;70.71;97320.81;4991550;28;20864;-75
2022/08/20 03:10:23;;;;;;;2.30;1.80;;;20.50;99.90;;;19.85;70.73;97311.63;4991450;28;20406;-75
2022/08/20 03:12:49;;;;;;;2.28;1.70;;;20.50;99.90;;;19.82;70.47;97306.88;4990564;28;20408;-75
2022/08/20 03:15:15;;;;;;;4.80;1.70;;;20.50;99.90;;;19.82;70.50;97309.56;4991358;28;20398;-75
2022/08/20 03:17:41;;;;;;;1.63;1.50;;;20.50;99.90;;;19.77;70.78;97301.66;4991447;28;20761;-75
2022/08/20 03:20:11;;;;;;;1.83;1.60;;;20.50;99.90;;;19.77;71.29;97305.16;4991288;28;20411;-75
2022/08/20 03:22:36;;;;;;;2.60;1.65;;;20.40;99.90;;;19.84;71.02;97304.69;4991024;28;20509;-75
2022/08/20 03:25:03;;;;;;;2.33;1.98;;;20.50;99.90;;;19.76;70.84;97308.94;4990982;28;20418;-75
2022/08/20 03:27:30;;;;;;;3.03;1.90;;;20.40;99.90;;;19.74;71.20;97308.44;4991057;28;20461;-76
2022/08/20 03:29:56;;;;;;;2.95;1.80;;;20.40;99.90;;;19.71;71.52;97309.06;4990903;28;20450;-75
2022/08/20 03:32:22;;;;;;;3.08;1.70;;;20.40;99.90;;;19.65;71.34;97310.31;4991132;28;20766;-75
2022/08/20 03:34:48;;;;;;;2.90;1.83;;;20.30;99.90;;;19.82;71.46;97312.25;4990669;28;20409;-75
2022/08/20 03:37:15;;;;;;;2.00;1.80;;;20.40;99.90;;;19.76;71.79;97300.88;4991120;28;20414;-75
2022/08/20 03:39:41;;;;;;;2.50;1.90;;;20.40;99.90;;;19.71;71.42;97309.06;4991110;28;20406;-75
2022/08/20 03:42:07;;;;;;;2.70;2.13;;;20.40;99.90;;;19.68;71.01;97307.00;4991103;28;20906;-75
2022/08/20 03:44:35;;;;;;;2.30;2.10;;;20.40;99.90;;;19.61;71.39;97304.78;4990384;28;20418;-75
2022/08/20 03:47:06;;;;;;;2.53;2.05;;;20.30;99.90;;;19.63;71.73;97309.81;4990998;28;20506;-75
2022/08/20 03:49:32;;;;;;;4.25;2.00;;;20.30;99.90;;;19.60;71.58;97310.47;4990898;28;20406;-75
2022/08/20 03:52:00;;;;;;;3.50;2.03;;;20.30;99.90;;;19.58;72.21;97318.03;4991002;28;20415;-75
2022/08/20 03:54:27;;;;;;;3.05;2.20;;;20.30;99.90;;;19.61;71.75;97312.84;4990513;28;20458;-75
2022/08/20 03:56:53;;;;;;;4.35;2.03;;;20.30;99.90;;;19.61;72.10;97315.53;4990835;28;20493;-75
2022/08/20 03:59:19;;;;;;;3.70;2.30;;;20.30;99.90;;;19.63;71.88;97315.97;4990910;28;20533;-75
2022/08/20 04:01:45;;;;;;;2.65;2.08;;;20.30;99.90;;;19.60;71.87;97318.50;4973468;28;20893;-74
2022/08/20 04:04:11;;;;;;;3.13;2.25;;;20.30;99.90;;;19.58;71.86;97326.06;4990471;28;20441;-75
2022/08/20 04:06:37;;;;;;;2.70;2.40;;;20.30;99.90;;;19.61;72.12;97317.41;4990894;28;20406;-75
2022/08/20 04:09:03;;;;;;;4.03;2.20;;;20.30;99.90;;;19.55;72.38;97313.25;4990746;28;20445;-75
2022/08/20 04:11:32;;;;;;;3.40;2.28;;;20.20;99.90;;;19.52;72.73;97313.91;4990719;28;20441;-75
2022/08/20 04:13:58;;;;;;;3.30;2.23;;;20.20;99.90;;;19.53;72.66;97316.28;4990309;28;20460;-75
2022/08/20 04:16:24;;;;;;;3.38;2.30;;;20.20;99.90;;;19.57;72.25;97319.91;4990774;28;20405;-75
2022/08/20 04:18:50;;;;;;;4.25;2.20;;;20.20;99.90;;;19.57;72.54;97313.75;4990624;28;20407;-75
2022/08/20 04:21:16;;;;;;;3.13;2.53;;;20.20;99.90;;;19.51;72.87;97315.78;4990672;28;20437;-75
2022/08/20 04:23:42;;;;;;;3.92;2.20;;;20.20;99.90;;;19.47;73.42;97322.88;4990242;28;20442;-75
2022/08/20 04:26:08;;;;;;;2.65;2.28;;;20.20;99.90;;;19.47;73.84;97325.53;4993086;28;20429;-74
2022/08/20 04:28:35;;;;;;;4.43;2.30;;;20.20;99.90;;;19.51;73.77;97328.41;4994448;28;20433;-75
2022/08/20 04:31:01;;;;;;;3.97;2.47;;;20.20;99.90;;;19.52;73.28;97333.50;4994230;28;20414;-75
2022/08/20 04:33:29;;;;;;;3.05;2.40;;;20.20;99.90;;;19.50;73.19;97337.56;4993815;28;20428;-75
2022/08/20 04:35:59;;;;;;;4.00;2.63;;;20.20;99.90;;;19.45;73.44;97335.78;4994185;28;20489;-75
2022/08/20 04:38:26;;;;;;;4.05;2.88;;;20.10;99.90;;;19.42;73.33;97341.78;4994121;28;20460;-74
2022/08/20 04:40:52;;;;;;;4.38;2.80;;;20.10;99.90;;;19.40;73.58;97335.91;4993879;28;20814;-75
2022/08/20 04:43:19;;;;;;;3.22;2.88;;;20.10;99.90;;;19.43;74.05;97335.31;4993742;28;20417;-75
2022/08/20 04:45:47;;;;;;;3.90;2.60;;;20.10;99.90;;;19.43;73.91;97334.50;4994016;28;20418;-75
2022/08/20 04:48:13;;;;;;;3.20;2.83;;;20.10;99.90;;;19.46;74.36;97345.44;4993906;28;20402;-75
2022/08/20 04:50:43;;;;;;;3.53;2.50;;;20.10;99.90;;;19.45;74.52;97353.78;4993940;28;20503;-75
2022/08/20 04:53:12;;;;;;;6.10;2.70;;;20.10;99.90;;;19.47;74.31;97357.00;4993508;28;20402;-75
2022/08/20 04:55:41;;;;;;;5.35;3.08;;;20.10;99.90;;;19.50;73.83;97345.63;4993612;28;20428;-75
2022/08/20 04:58:12;;;;;;;4.53;2.87;;;20.20;99.90;;;19.45;73.69;97345.75;4993833;28;20490;-75
2022/08/20 05:00:39;;;;;;;3.83;2.80;;;20.10;99.90;;;19.43;74.09;97351.41;4993733;28;20430;-75
2022/08/20 05:03:07;;;;;;;5.85;3.00;;;20.10;99.90;;;19.44;73.99;97344.94;4993174;28;20456;-75
2022/08/20 05:05:34;;;;;;;4.65;2.97;;;20.10;99.90;;;19.43;74.17;97356.78;4993453;28;20535;-75
2022/08/20 05:08:01;;;;;;;5.50;2.92;;;20.10;99.90;;;19.52;73.96;97354.97;4993663;28;20414;-75
2022/08/20 05:10:28;;;;;;;4.30;2.80;;;20.10;99.90;;;19.47;73.96;97357.00;4993466;28;20406;-75
2022/08/20 05:12:54;;;;;;;3.97;2.90;;;20.10;99.90;;;19.47;74.23;97363.13;4975642;28;20787;-75
2022/08/20 05:15:20;;;;;;;4.68;2.83;;;20.10;99.90;;;19.44;74.28;97366.44;4993467;28;20403;-75
2022/08/20 05:17:46;;;;;;;5.78;3.15;;;20.10;99.90;;;19.49;74.59;97366.31;4993484;28;20414;-75
2022/08/20 05:20:16;;;;;;;3.17;2.57;;;20.10;99.90;;;19.44;74.54;97371.00;4993371;28;20406;-75
2022/08/20 05:22:42;;;;;;;4.10;2.60;;;20.10;99.90;;;19.37;74.84;97370.66;4993220;28;20454;-75
2022/08/20 05:25:09;;;;;;;2.88;2.60;;;20.10;99.90;;;19.42;75.02;97371.31;4993007;28;20469;-75
2022/08/20 05:27:35;;;;;;;3.28;2.67;;;20.00;99.90;;;19.34;74.88;97370.16;4993249;28;20403;-75
2022/08/20 05:30:06;;;;;;;4.65;2.83;;;20.00;99.90;;;19.30;74.82;97382.63;4993062;28;20410;-75
2022/08/20 05:32:32;;;;;;;3.80;2.78;;;20.00;99.90;;;19.27;75.53;97374.38;4993060;28;20406;-75
2022/08/20 05:35:00;;;;;;;2.92;2.63;;;20.00;99.90;;;19.25;75.69;97385.41;4992758;28;20402;-75
2022/08/20 05:37:29;;;;;;;3.22;2.70;;;20.00;99.90;;;19.25;75.72;97376.56;4992962;28;20410;-75
2022/08/20 05:39:55;;;;;;;4.25;3.03;;;19.90;99.90;;;19.23;75.17;97390.31;4992863;28;20492;-75
2022/08/20 05:42:21;;;;;;;5.22;2.92;;;19.90;99.90;;;19.21;75.31;97380.97;4992989;28;20410;-75
2022/08/20 05:44:47;;;;;;;9.50;3.30;;;19.90;99.90;;;19.18;75.62;97382.38;4992382;28;20429;-75
2022/08/20 05:47:13;;;;;;;4.40;3.07;;;19.90;99.90;;;19.20;76.18;97382.88;4992851;28;20411;-75
2022/08/20 05:49:39;;;;;;;3.95;2.80;;;19.90;99.90;;;19.24;76.48;97388.44;4992694;28;20493;-75
2022/08/20 05:52:05;;;;;;;4.28;3.42;;;19.90;99.90;;;19.25;75.93;97392.66;4992750;28;20407;-75
2022/08/20 05:54:32;;;;;;;3.53;3.10;;;19.90;99.90;;;19.27;76.37;97393.97;4992276;28;20428;-75
2022/08/20 05:56:58;;;;;;;3.92;2.90;;;20.00;99.90;;;19.31;76.69;97392.25;4992608;28;20418;-75
2022/08/20 05:59:26;;;;;;;4.63;2.90;;;20.00;99.90;;;19.37;76.80;97389.44;4992631;28;20411;-75
2022/08/20 06:01:52;;;;;;;3.30;2.97;;;20.00;99.90;;;19.43;76.56;97386.31;4992680;28;20457;-76
2022/08/20 06:04:25;;;;;;;7.10;3.55;;;20.10;99.90;;;19.48;76.57;97385.41;4992145;28;20406;-75
2022/08/20 06:06:53;;;;;;;4.57;3.67;;;20.20;99.90;;;19.51;76.46;97385.59;4992575;28;20449;-78
2022/08/20 06:09:23;;;;;;;3.47;3.17;;;20.20;99.90;;;19.57;76.42;97387.03;4992281;28;20403;-75
2022/08/20 06:11:50;;;;;;;4.68;3.30;;;20.20;99.90;;;19.62;76.44;97394.97;4992483;28;21746;-75
2022/08/20 06:14:16;;;;;;;3.75;2.88;;;20.30;99.90;;;19.70;76.51;97386.16;4991947;28;20561;-75
2022/08/20 06:16:43;;;;;;;3.60;2.85;;;20.30;99.90;;;19.76;76.26;97383.34;4992387;28;20438;-75
2022/08/20 06:19:10;;;;;;;4.93;3.00;;;20.40;99.90;;;19.79;76.22;97383.50;4992255;28;20509;-75
2022/08/20 06:21:36;;;;;;;6.65;3.22;;;20.40;99.90;;;19.85;74.76;97386.84;4992219;28;20450;-75
2022/08/20 06:24:03;;;;;;;5.53;2.83;;;20.50;99.90;;;19.83;74.42;97394.44;4991585;28;20832;-75
2022/08/20 06:26:30;;;;;;;4.85;4.07;;;20.50;99.90;;;19.81;74.61;97389.38;4991970;28;20430;-75
2022/08/20 06:28:57;;;;;;;4.28;2.92;;;20.50;99.90;;;19.82;74.67;97398.22;4992007;28;20441;-75
2022/08/20 06:31:24;;;;;;;3.95;2.70;;;20.40;99.90;;;19.97;74.55;97403.19;4991853;28;20419;-75
2022/08/20 06:33:49;;;;;;;4.95;2.97;;;20.50;99.90;;;19.99;74.23;97404.47;4991412;28;20767;-75
2022/08/20 06:36:15;;;;;;;3.33;2.80;;;20.60;99.90;;;20.04;73.62;97406.19;4991843;28;20391;-75
2022/08/20 06:38:42;;;;;;;5.88;3.00;;;20.60;99.90;;;20.05;73.45;97407.78;4991920;28;20472;-75
2022/08/20 06:41:08;;;;;;;3.58;2.60;;;20.70;99.90;;;19.98;74.01;97404.75;4991734;28;20813;-75
2022/08/20 06:43:34;;;;;;;4.05;3.10;;;20.60;99.90;;;20.02;74.47;97408.41;4991303;28;20410;-74
2022/08/20 06:46:01;;;;;;;3.95;2.95;;;20.60;99.90;;;19.98;74.27;97407.44;4991565;28;20431;-75
2022/08/20 06:48:27;;;;;;;5.80;2.95;;;20.60;99.90;;;19.96;74.46;97415.03;4991150;28;20457;-75
2022/08/20 06:50:53;;;;;;;3.08;2.67;;;20.60;99.90;;;19.93;74.66;97396.81;4991696;28;20406;-75
2022/08/20 06:53:20;;;;;;;3.40;2.60;;;20.60;99.90;;;19.92;74.99;97406.78;4991273;28;20409;-75
2022/08/20 06:55:51;;;;;;;5.70;3.28;;;20.60;99.90;;;19.92;75.43;97409.47;4991586;28;20464;-75
2022/08/20 06:58:18;;;;;;;5.07;3.08;;;20.60;99.90;;;19.92;74.72;97406.78;4991603;28;20855;-75
2022/08/20 07:00:44;;;;;;;3.17;2.80;;;20.50;99.90;;;19.92;74.99;97408.69;4991528;28;20472;-75
2022/08/20 07:03:13;;;;;;;6.75;3.25;;;20.50;99.90;;;19.91;74.62;97404.41;4991086;28;20466;-75
2022/08/20 07:05:42;;;;;;;4.32;3.10;;;20.60;99.90;;;19.85;73.57;97401.06;4991231;28;20476;-74
2022/08/20 07:08:10;;;;;;;3.08;2.67;;;20.50;99.90;;;19.85;74.12;97401.06;4991391;28;20399;-75
2022/08/20 07:10:36;;;;;;;3.88;2.83;;;20.50;99.90;;;19.89;74.79;97406.63;4991291;28;20411;-75
2022/08/20 07:13:02;;;;;;;4.03;3.20;;;20.50;99.90;;;19.91;75.10;97402.53;4990905;28;20406;-75
2022/08/20 07:15:29;;;;;;;4.40;2.80;;;20.50;99.90;;;19.90;74.85;97400.94;4991289;28;20505;-75
2022/08/20 07:18:00;;;;;;;3.08;2.70;;;20.50;99.90;;;19.97;75.51;97403.97;4991299;28;20407;-75
2022/08/20 07:20:30;;;;;;;6.13;3.67;;;20.60;99.90;;;20.00;75.13;97408.69;4991203;28;20402;-75
2022/08/20 07:22:56;;;;;;;4.22;2.80;;;20.60;99.90;;;20.05;75.14;97405.91;4990793;28;20402;-75
2022/08/20 07:25:23;;;;;;;4.13;2.80;;;20.70;99.90;;;20.10;74.85;97407.63;4991097;28;20923;-75
2022/08/20 07:27:50;;;;;;;3.00;2.70;;;20.70;99.90;;;20.22;74.39;97407.06;4991174;28;20466;-75
2022/08/20 07:33:05;;;;;;;6.22;3.03;;;20.90;99.90;;;20.29;73.49;97415.44;4970321;28;20404;-75
2022/08/20 07:35:33;;;;;;;6.13;2.88;;;20.90;99.90;;;20.26;72.48;97408.78;4971451;28;20408;-75
2022/08/20 07:37:59;;;;;;;3.85;2.75;;;20.90;99.90;;;20.30;72.64;97414.31;4971501;28;20778;-76
2022/08/20 07:40:29;;;;;;;4.25;2.70;;;20.90;99.90;;;20.35;73.37;97411.53;4980282;28;20407;-75
2022/08/20 07:42:57;;;;;;;5.07;2.70;;;20.90;99.90;;;20.39;73.58;97420.53;4990521;28;20402;-75
2022/08/20 07:45:24;;;;;;;4.93;2.83;;;21.00;99.90;;;20.46;73.25;97428.94;4990718;28;20926;-75
2022/08/20 07:47:52;;;;;;;3.40;2.80;;;21.10;99.90;;;20.54;73.21;97433.53;4990872;28;20433;-75
2022/08/20 07:50:23;;;;;;;4.78;2.75;;;21.10;99.90;;;20.62;73.17;97434.66;4990690;28;20434;-75
2022/08/20 07:52:52;;;;;;;3.53;2.90;;;21.20;99.90;;;20.63;72.48;97436.25;4990520;28;20904;-75
2022/08/20 07:55:20;;;;;;;3.60;2.50;;;21.20;99.90;;;20.73;72.73;97435.97;4990720;28;20413;-75
2022/08/20 07:57:48;;;;;;;3.47;2.87;;;21.30;99.90;;;20.88;71.09;97432.00;4990969;28;20415;-75
2022/08/20 08:00:17;;;;;;;3.17;2.53;;;21.50;99.90;;;20.91;71.41;97431.38;4993778;28;20489;-76
2022/08/20 08:02:43;;;;;;;3.35;2.75;;;21.50;99.90;;;21.03;70.82;97434.22;4994498;28;20449;-75
2022/08/20 08:05:09;;;;;;;4.03;3.05;;;21.50;99.90;;;21.02;69.72;97433.44;4994419;28;20414;-75
2022/08/20 08:07:37;;;;;;;3.97;3.00;;;21.60;99.90;;;21.07;69.59;97438.66;4994667;28;20424;-76
2022/08/20 08:10:08;;;;;;;3.15;2.72;;;21.60;99.90;;;21.11;69.58;97428.84;4994632;28;20406;-75
2022/08/20 08:12:39;;;;;;;2.95;2.63;;;21.70;99.90;;;21.16;69.99;97431.41;4994485;28;20920;-76
2022/08/20 08:15:09;;;;;;;4.72;2.95;;;21.70;99.90;;;21.21;69.50;97435.81;4994176;28;20920;-75
2022/08/20 08:17:36;;;;;;;3.95;2.92;;;21.70;99.90;;;21.35;69.19;97425.66;4977046;28;20411;-77
2022/08/20 08:20:05;;;;;;;2.95;2.40;;;21.90;99.90;;;21.40;69.56;97422.03;4994402;28;20777;-75
2022/08/20 08:22:31;;;;;;;2.87;2.57;;;22.00;99.90;;;21.51;69.60;97424.03;4994303;28;20402;-75
2022/08/20 08:25:01;;;;;;;4.97;2.72;;;22.00;99.90;;;21.63;68.82;97426.88;4993898;28;20474;-75
2022/08/20 08:27:31;;;;;;;3.70;2.50;;;22.20;99.90;;;21.77;68.23;97418.59;4994477;28;20486;-76
2022/08/20 08:29:57;;;;;;;3.17;2.65;;;22.30;99.90;;;21.86;67.63;97418.56;4994096;28;20422;-75
2022/08/20 08:32:23;;;;;;;2.90;2.38;;;22.40;99.30;;;22.01;66.57;97415.38;4976901;28;20831;-75
2022/08/20 08:34:49;;;;;;;4.53;2.63;;;22.60;98.20;;;22.03;66.47;97420.44;4993713;28;20406;-75
2022/08/20 08:37:15;;;;;;;3.85;2.30;;;22.60;97.90;;;22.05;66.45;97420.88;4994182;28;20422;-75
2022/08/20 08:39:41;;;;;;;2.60;2.20;;;22.60;97.40;;;22.05;65.95;97415.50;4994097;28;20501;-75
2022/08/20 08:42:24;;;;;;;3.45;2.75;;;22.60;96.90;;;22.12;65.35;97419.25;4994148;28;20418;-75
2022/08/20 08:44:53;;;;;;;3.40;2.70;;;22.60;96.70;;;22.14;66.14;97416.25;4993504;28;20962;-75
2022/08/20 08:47:25;;;;;;;4.15;2.83;;;22.60;96.80;;;22.29;65.04;97418.41;4993836;28;20424;-75
2022/08/20 08:49:51;;;;;;;4.03;2.85;;;22.70;96.20;;;22.33;63.66;97408.53;4993824;28;20399;-75
2022/08/20 08:52:22;;;;;;;2.60;2.30;;;22.70;94.60;;;22.30;63.83;97420.78;4993986;28;20406;-75
2022/08/20 08:54:54;;;;;;;3.67;2.63;;;22.80;94.30;;;22.25;63.63;97420.19;4993456;28;20872;-75
2022/08/20 08:57:20;;;;;;;4.05;2.60;;;22.70;93.90;;;22.31;64.03;97424.25;4976454;28;20416;-75
2022/08/20 08:59:53;;;;;;;4.47;2.60;;;22.80;94.40;;;22.34;64.66;97424.38;4993624;28;20895;-75
2022/08/20 09:02:24;;;;;;;4.57;2.85;;;22.90;94.70;;;22.36;64.44;97424.06;4993717;28;20819;-75
2022/08/20 09:04:55;;;;;;;3.63;3.00;;;22.90;94.50;;;22.42;63.48;97420.06;4993145;28;20405;-76
2022/08/20 09:07:23;;;;;;;4.93;2.53;;;22.90;93.70;;;22.37;62.46;97420.25;4993707;28;20520;-75
2022/08/20 09:09:50;;;;;;;4.00;2.40;;;22.90;92.40;;;22.36;62.55;97415.97;4976063;28;20454;-76
2022/08/20 09:12:18;;;;;;;2.55;2.35;;;22.90;92.40;;;22.44;62.66;97412.44;4992930;28;20418;-75
2022/08/20 09:14:47;;;;;;;2.55;2.35;;;22.90;92.50;;;22.56;63.05;97409.00;4992934;28;20915;-76
2022/08/20 09:17:16;;;;;;;6.65;2.70;;;23.10;92.90;;;22.74;61.43;97416.72;4993512;28;20411;-75
2022/08/20 09:19:42;;;;;;;2.75;2.10;;;23.20;91.60;;;22.78;60.32;97416.81;4993285;28;20910;-75
2022/08/20 09:22:10;;;;;;;1.95;1.75;;;23.30;90.40;;;22.80;59.43;97417.28;4993353;28;20417;-75
2022/08/20 09:24:36;;;;;;;1.55;1.35;;;23.30;88.70;;;22.84;58.30;97420.94;4992776;28;20438;-75
2022/08/20 09:27:03;;;;;;;2.15;1.55;;;23.40;86.70;;;22.99;58.15;97417.63;4993282;28;20419;-75
2022/08/20 09:29:31;;;;;;;2.90;1.70;;;23.50;86.60;;;22.83;58.60;97419.34;4992918;28;20407;-75
2022/08/20 09:32:04;;;;;;;2.97;1.55;;;23.40;86.00;;;22.91;58.92;97417.69;4993125;28;20912;-75
2022/08/20 09:34:35;;;;;;;3.00;1.75;;;23.40;87.00;;;22.85;59.59;97427.91;4992672;28;20875;-76
2022/08/20 09:37:01;;;;;;;2.40;1.60;;;23.40;87.40;;;23.02;59.01;97426.97;4993145;28;20442;-76
2022/08/20 09:39:27;;;;;;;2.37;1.70;;;23.50;87.00;;;22.95;59.74;97410.50;4992958;28;20468;-75
2022/08/20 09:41:53;;;;;;;2.10;1.50;;;23.50;87.60;;;22.93;60.20;97416.22;4993053;28;20912;-75
2022/08/20 09:44:19;;;;;;;4.32;1.60;;;23.50;88.50;;;22.91;60.32;97415.78;4992574;28;20411;-76
2022/08/20 09:46:45;;;;;;;1.67;1.58;;;23.50;88.20;;;22.98;60.37;97423.34;4992955;28;20512;-76
2022/08/20 09:49:11;;;;;;;2.08;1.55;;;23.50;88.30;;;22.94;59.45;97412.41;4992738;28;20410;-75
2022/08/20 09:51:38;;;;;;;2.72;1.40;;;23.50;86.80;;;22.99;58.88;97411.44;4992733;28;20413;-76
2022/08/20 09:54:05;;;;;;;1.93;1.40;;;23.50;85.80;;;22.94;59.44;97420.50;4992340;28;20402;-75
2022/08/20 09:56:34;;;;;;;1.58;1.20;;;23.50;86.30;;;22.92;59.67;97409.28;4992710;28;20414;-75
2022/08/20 09:59:00;;;;;;;1.40;1.10;;;23.50;86.70;;;22.88;59.84;97404.84;4992720;28;20399;-76
2022/08/20 10:01:26;;;;;;;1.20;0.90;;;23.40;87.30;;;22.92;60.02;97411.97;4992666;28;20413;-75
2022/08/20 10:03:52;;;;;;;1.17;0.97;;;23.40;87.10;;;23.01;58.99;97420.78;4992076;28;20506;-75
2022/08/20 10:06:19;;;;;;;2.40;1.20;;;23.50;86.00;;;23.09;57.63;97409.09;4992642;28;20521;-76
2022/08/20 10:08:47;;;;;;;1.30;1.20;;;23.60;83.50;;;23.12;58.75;97416.56;4992662;28;20430;-77
2022/08/20 10:11:13;;;;;;;2.13;1.40;;;23.70;84.80;;;23.32;58.75;97422.25;4992402;28;20466;-76
2022/08/20 10:13:39;;;;;;;2.13;1.40;;;23.80;85.20;;;23.53;58.62;97423.03;4992202;28;20711;-76
2022/08/20 10:16:05;;;;;;;3.30;1.83;;;23.90;85.20;;;23.82;56.90;97420.16;4992478;28;20892;-75
2022/08/20 10:18:33;;;;;;;2.78;1.58;;;24.20;82.60;;;23.78;57.45;97421.94;4992260;28;20403;-75
2022/08/20 10:20:58;;;;;;;2.50;1.27;;;24.30;83.40;;;23.81;58.35;97413.19;4992252;28;20876;-75
2022/08/20 10:23:24;;;;;;;1.38;1.15;;;24.30;84.50;;;23.81;57.83;97431.31;4990882;28;20408;-76
2022/08/20 10:25:52;;;;;;;1.85;1.00;;;24.30;83.60;;;23.78;57.48;97430.06;4992155;28;20418;-75
2022/08/20 10:28:18;;;;;;;7.97;0.98;;;24.20;82.80;;;23.82;57.70;97432.91;4992095;28;20402;-75